Time;durP1;ratioP1;P1;durP2;ratioP2;P2;SDS_P1;SDS_P2;PMS_P1;PMS_P2;Temp;Humidity;BMP_temperature;BMP_pressure;BME280_temperature;BME280_humidity;BME280_pressure;Samples;Min_cycle;Max_cycle;Signal;HPM_P1;HPM_P2
2022/07/24 00:00:09;;;;;;;2.88;1.98;;;;;;;15.13;99.50;101078.53;7777655;22;20124;-92
2022/07/24 00:03:17;;;;;;;2.80;1.90;;;;;;;15.06;100.00;101075.69;7777192;22;20027;-91
2022/07/24 00:06:22;;;;;;;2.35;1.60;;;;;;;15.06;100.00;101083.50;7750251;22;20044;-91
2022/07/24 00:09:24;;;;;;;2.85;1.83;;;;;;;15.02;100.00;101074.31;7776288;22;20019;-91
2022/07/24 00:12:26;;;;;;;2.10;1.73;;;;;;;14.98;100.00;101067.69;7776005;22;20024;-91
2022/07/24 00:15:30;;;;;;;1.95;1.70;;;;;;;14.96;100.00;101069.66;7749402;22;20020;-91
2022/07/24 00:18:32;;;;;;;3.33;2.13;;;;;;;14.94;100.00;101069.78;7777835;22;20015;-92
2022/07/24 00:21:34;;;;;;;4.20;2.08;;;;;;;14.93;100.00;101070.75;7777287;22;20020;-92
2022/07/24 00:24:36;;;;;;;3.58;1.92;;;;;;;14.92;100.00;101070.88;7778338;22;20369;-92
2022/07/24 00:27:37;;;;;;;2.35;1.65;;;;;;;14.86;100.00;101073.06;7750367;22;20114;-92
2022/07/24 00:30:39;;;;;;;2.53;1.95;;;;;;;14.81;100.00;101075.25;7775144;22;20070;-92
2022/07/24 00:33:41;;;;;;;3.05;1.98;;;;;;;14.76;100.00;101072.22;7777050;22;20012;-92
2022/07/24 00:36:43;;;;;;;5.53;2.22;;;;;;;14.70;100.00;101064.94;7777336;22;20401;-92
2022/07/24 00:39:47;;;;;;;1.75;1.50;;;;;;;14.67;100.00;101065.22;7775386;22;20315;-91
2022/07/24 00:42:49;;;;;;;2.72;1.58;;;;;;;14.66;100.00;101068.78;7777630;22;20043;-90
2022/07/24 00:45:52;;;;;;;1.60;1.50;;;;;;;14.65;100.00;101065.31;7776919;22;20023;-92
2022/07/24 00:48:54;;;;;;;2.47;1.70;;;;;;;14.64;100.00;101066.31;7777851;22;20020;-92
2022/07/24 00:51:56;;;;;;;1.95;1.67;;;;;;;14.65;100.00;101064.50;7776925;22;20051;-92
2022/07/24 00:54:58;;;;;;;3.22;1.65;;;;;;;14.61;100.00;101070.97;7777421;22;20054;-92
2022/07/24 00:58:00;;;;;;;3.28;1.75;;;;;;;14.56;100.00;101067.94;7774470;22;20020;-92
2022/07/24 01:01:02;;;;;;;2.72;1.70;;;;;;;14.51;100.00;101064.84;7777121;22;20035;-92
2022/07/24 01:04:04;;;;;;;3.47;1.52;;;;;;;14.47;100.00;101063.50;7776514;22;20023;-91
2022/07/24 01:07:07;;;;;;;1.77;1.50;;;;;;;14.45;100.00;101061.00;7778219;22;20066;-92
2022/07/24 01:10:10;;;;;;;3.10;1.50;;;;;;;14.47;100.00;101063.50;7777672;22;20093;-92
2022/07/24 01:13:12;;;;;;;1.92;1.45;;;;;;;14.48;100.00;101065.13;7778969;22;20015;-92
2022/07/24 01:16:15;;;;;;;2.78;1.80;;;;;;;14.43;100.00;101055.94;7778332;22;20702;-91
2022/07/24 01:19:17;;;;;;;3.63;1.60;;;;;;;14.40;100.00;101064.00;7780998;22;20026;-91
2022/07/24 01:22:19;;;;;;;2.05;1.75;;;;;;;14.35;100.00;101050.56;7778490;22;20016;-92
2022/07/24 01:25:21;;;;;;;2.55;1.95;;;;;;;14.33;100.00;101049.88;7778856;22;20020;-92
2022/07/24 01:28:23;;;;;;;2.35;1.63;;;;;;;14.27;100.00;101058.22;7779860;22;20024;-92
2022/07/24 01:31:25;;;;;;;3.53;1.80;;;;;;;14.22;100.00;101049.97;7779639;22;20464;-92
2022/07/24 01:34:27;;;;;;;2.35;1.83;;;;;;;14.19;100.00;101050.25;7780584;22;20089;-92
2022/07/24 01:37:29;;;;;;;4.10;1.92;;;;;;;14.15;100.00;101047.06;7779540;22;20023;-92
2022/07/24 01:40:30;;;;;;;3.63;1.70;;;;;;;14.12;100.00;101049.94;7780205;22;20020;-92
2022/07/24 01:43:33;;;;;;;1.58;1.45;;;;;;;14.09;100.00;101039.81;7780596;22;20023;-92
2022/07/24 01:46:35;;;;;;;3.75;1.80;;;;;;;14.06;100.00;101036.63;7778271;22;20082;-92
2022/07/24 01:49:37;;;;;;;2.63;2.13;;;;;;;14.06;100.00;101034.00;7779925;22;20023;-92
2022/07/24 01:52:39;;;;;;;2.22;1.85;;;;;;;14.03;100.00;101031.69;7778185;22;20012;-92
2022/07/24 01:55:41;;;;;;;2.78;1.92;;;;;;;13.98;100.00;101039.88;7781139;22;20023;-92
2022/07/24 01:58:43;;;;;;;1.95;1.50;;;;;;;13.95;100.00;101038.38;7778644;22;20139;-92
2022/07/24 02:01:45;;;;;;;2.90;2.20;;;;;;;13.92;100.00;101036.03;7779815;22;20480;-91
2022/07/24 02:04:47;;;;;;;4.10;1.70;;;;;;;13.90;100.00;101029.31;7776484;22;20026;-92
2022/07/24 02:07:56;;;;;;;1.90;1.70;;;;;;;13.89;100.00;101038.06;7779634;22;20026;-91
2022/07/24 02:10:58;;;;;;;3.53;1.80;;;;;;;13.88;100.00;101037.22;7780208;22;20392;-91
2022/07/24 02:14:00;;;;;;;2.33;1.80;;;;;;;13.90;100.00;101034.50;7779404;22;20472;-92
2022/07/24 02:17:03;;;;;;;2.80;1.90;;;;;;;13.87;100.00;101033.00;7779979;22;20020;-92
2022/07/24 02:20:06;;;;;;;6.25;2.03;;;;;;;13.86;100.00;101031.31;7749886;22;20019;-92
2022/07/24 02:23:08;;;;;;;2.70;2.15;;;;;;;13.85;100.00;101037.50;7777465;22;20062;-92
2022/07/24 02:26:10;;;;;;;2.55;1.88;;;;;;;13.84;100.00;101035.00;7780678;22;20024;-92
2022/07/24 02:29:11;;;;;;;3.95;1.83;;;;;;;13.81;100.00;101041.31;7778868;22;20015;-91
2022/07/24 02:32:15;;;;;;;3.80;2.15;;;;;;;13.77;100.00;101040.75;7776275;22;20101;-92
2022/07/24 02:35:17;;;;;;;4.00;2.30;;;;;;;13.76;100.00;101043.47;7750701;22;20079;-92
2022/07/24 02:38:19;;;;;;;2.47;1.92;;;;;;;13.72;100.00;101042.09;7780341;22;20450;-92
2022/07/24 02:41:21;;;;;;;2.22;1.83;;;;;;;13.68;100.00;101036.31;7779816;22;20020;-92
2022/07/24 02:44:22;;;;;;;2.95;2.00;;;;;;;13.65;100.00;101038.34;7750730;22;20445;-92
2022/07/24 02:47:24;;;;;;;2.78;2.08;;;;;;;13.62;100.00;101029.03;7775724;22;20030;-92
2022/07/24 02:50:31;;;;;;;3.10;2.20;;;;;;;13.57;100.00;101032.00;7751798;22;20024;-92
2022/07/24 02:53:33;;;;;;;2.40;2.20;;;;;;;13.56;100.00;101030.38;7779380;22;20020;-92
2022/07/24 02:56:34;;;;;;;4.20;1.83;;;;;;;13.55;100.00;101039.13;7774348;22;20337;-92
2022/07/24 02:59:36;;;;;;;2.80;1.88;;;;;;;13.54;100.00;101037.47;7753443;22;20020;-92
2022/07/24 03:02:38;;;;;;;2.40;1.85;;;;;;;13.53;100.00;101041.03;7776364;22;20011;-92
2022/07/24 03:05:40;;;;;;;4.60;2.20;;;;;;;13.53;100.00;101045.41;7779069;22;20020;-92
2022/07/24 03:08:42;;;;;;;3.10;1.73;;;;;;;13.54;100.00;101041.88;7776720;22;20437;-92
2022/07/24 03:11:43;;;;;;;3.58;2.00;;;;;;;13.56;100.00;101043.38;7752669;22;20031;-91
2022/07/24 03:14:45;;;;;;;2.22;1.92;;;;;;;13.58;100.00;101046.66;7778939;22;20023;-92
2022/07/24 03:17:53;;;;;;;2.55;1.90;;;;;;;13.62;100.00;101049.03;7775506;22;20118;-93
2022/07/24 03:20:58;;;;;;;2.00;1.80;;;;;;;13.62;100.00;101041.22;7779108;22;20024;-92
2022/07/24 03:24:00;;;;;;;2.50;1.90;;;;;;;13.59;100.00;101039.69;7779459;22;20023;-92
2022/07/24 03:27:02;;;;;;;4.20;2.13;;;;;;;13.56;100.00;101035.59;7777740;22;20026;-92
2022/07/24 03:30:06;;;;;;;3.58;2.00;;;;;;;13.56;100.00;101042.53;7751061;22;20012;-93
2022/07/24 03:33:08;;;;;;;3.58;1.65;;;;;;;13.52;100.00;101038.56;7778446;22;20485;-92
2022/07/24 03:36:10;;;;;;;2.20;2.00;;;;;;;13.52;100.00;101038.56;7777521;22;20473;-92
2022/07/24 03:39:12;;;;;;;3.95;2.03;;;;;;;13.50;100.00;101035.25;7778437;22;20079;-92
2022/07/24 03:42:13;;;;;;;4.93;2.17;;;;;;;13.50;100.00;101037.88;7778647;22;20016;-92
2022/07/24 03:45:15;;;;;;;2.72;1.98;;;;;;;13.51;100.00;101035.13;7779730;22;20027;-93
2022/07/24 03:48:17;;;;;;;2.10;1.90;;;;;;;13.54;100.00;101024.47;7750419;22;20039;-93
2022/07/24 03:51:19;;;;;;;3.13;2.00;;;;;;;13.57;100.00;101033.81;7776625;22;20020;-93
2022/07/24 03:54:21;;;;;;;2.25;1.80;;;;;;;13.62;100.00;101036.03;7753094;22;20350;-93
2022/07/24 03:57:23;;;;;;;3.40;1.73;;;;;;;13.65;100.00;101038.34;7778115;22;20129;-92
2022/07/24 04:00:25;;;;;;;4.18;1.80;;;;;;;13.68;100.00;101040.69;7778596;22;20118;-92
2022/07/24 04:03:27;;;;;;;3.97;2.05;;;;;;;13.72;100.00;101042.91;7779292;22;20057;-92
2022/07/24 04:06:29;;;;;;;3.08;1.95;;;;;;;13.72;100.00;101037.72;7776261;22;20020;-92
2022/07/24 04:09:31;;;;;;;4.32;1.90;;;;;;;13.77;100.00;101037.31;7777563;22;20027;-92
2022/07/24 04:12:34;;;;;;;3.55;1.92;;;;;;;13.83;100.00;101030.78;7777007;22;20563;-92
2022/07/24 04:15:35;;;;;;;2.22;2.00;;;;;;;13.87;100.00;101033.00;7751316;22;20019;-92
2022/07/24 04:18:37;;;;;;;2.13;1.90;;;;;;;13.89;100.00;101033.69;7778526;22;20091;-92
2022/07/24 04:21:40;;;;;;;2.53;1.98;;;;;;;13.94;100.00;101038.50;7778937;22;20031;-93
2022/07/24 04:24:42;;;;;;;2.22;2.00;;;;;;;13.97;100.00;101036.47;7778729;22;20516;-93
2022/07/24 04:27:44;;;;;;;3.75;2.30;;;;;;;14.02;100.00;101041.28;7778301;22;20020;-92
2022/07/24 04:30:46;;;;;;;4.07;2.10;;;;;;;14.07;100.00;101030.47;7778050;22;20028;-92
2022/07/24 04:33:48;;;;;;;3.47;1.90;;;;;;;14.15;100.00;101028.84;7778583;22;20047;-92
2022/07/24 04:36:49;;;;;;;3.33;1.90;;;;;;;14.22;100.00;101027.38;7776893;22;20123;-92
2022/07/24 04:39:52;;;;;;;3.90;2.10;;;;;;;14.28;100.00;101031.22;7779266;22;20100;-92
2022/07/24 04:42:54;;;;;;;3.67;1.92;;;;;;;14.32;100.00;101032.59;7781991;22;20046;-92
2022/07/24 04:45:56;;;;;;;2.00;1.80;;;;;;;14.33;100.00;101031.63;7780154;22;20016;-92
2022/07/24 04:48:57;;;;;;;2.05;1.80;;;;;;;14.39;100.00;101030.31;7781304;22;20019;-93
2022/07/24 04:52:00;;;;;;;1.60;1.50;;;;;;;14.46;100.00;101033.16;7781633;22;20015;-93
2022/07/24 04:55:02;;;;;;;3.17;1.85;;;;;;;14.50;100.00;101037.16;7780420;22;20034;-93
2022/07/24 04:58:04;;;;;;;2.38;1.63;;;;;;;14.57;100.00;101026.09;7781497;22;20023;-93
2022/07/24 05:01:06;;;;;;;1.95;1.58;;;;;;;14.65;100.00;101025.44;7780098;22;20019;-92
2022/07/24 05:04:08;;;;;;;1.77;1.67;;;;;;;14.75;100.00;101025.44;7777856;22;20023;-92
2022/07/24 05:07:10;;;;;;;1.90;1.80;;;;;;;14.81;100.00;101023.13;7781059;22;20019;-92
2022/07/24 05:10:12;;;;;;;2.15;1.80;;;;;;;14.91;100.00;101022.31;7779629;22;20035;-92
2022/07/24 05:13:13;;;;;;;2.55;1.55;;;;;;;14.99;100.00;101027.66;7780604;22;20016;-93
2022/07/24 05:16:15;;;;;;;2.22;1.60;;;;;;;15.02;100.00;101022.97;7753673;22;20456;-92
2022/07/24 05:19:17;;;;;;;2.53;1.60;;;;;;;15.06;100.00;101024.34;7779667;22;20023;-92
2022/07/24 05:22:19;;;;;;;1.60;1.50;;;;;;;15.11;100.00;101030.94;7779915;22;20015;-92
2022/07/24 05:25:21;;;;;;;3.15;2.08;;;;;;;15.15;100.00;101034.91;7753522;22;20020;-92
2022/07/24 05:28:23;;;;;;;2.05;1.85;;;;;;;15.17;100.00;101033.81;7780241;22;20101;-92
2022/07/24 05:31:25;;;;;;;2.35;1.52;;;;;;;15.27;100.00;101036.41;7779371;22;20449;-92
2022/07/24 05:34:27;;;;;;;2.85;2.00;;;;;;;15.34;100.00;101034.06;7776000;22;20521;-93
2022/07/24 05:37:29;;;;;;;3.08;1.70;;;;;;;15.40;100.00;101033.50;7779616;22;20020;-92
2022/07/24 05:40:30;;;;;;;3.00;1.70;;;;;;;15.47;100.00;101030.19;7777244;22;20015;-92
2022/07/24 05:43:33;;;;;;;5.30;1.98;;;;;;;15.55;100.00;101033.88;7778347;22;20031;-93
2022/07/24 05:46:34;;;;;;;5.18;1.75;;;;;;;15.63;100.00;101037.44;7779071;22;20024;-92
2022/07/24 05:49:36;;;;;;;1.73;1.63;;;;;;;15.74;100.00;101027.84;7777479;22;20094;-92
2022/07/24 05:52:39;;;;;;;3.08;1.65;;;;;;;15.84;100.00;101029.44;7778090;22;20512;-92
2022/07/24 05:55:41;;;;;;;3.50;1.83;;;;;;;15.96;100.00;101024.88;7775004;22;20027;-92
2022/07/24 05:58:43;;;;;;;1.60;1.40;;;;;;;16.10;100.00;101028.81;7779749;22;20016;-92
2022/07/24 06:01:45;;;;;;;2.33;1.40;;;;;;;16.21;100.00;101020.75;7749417;22;20461;-92
2022/07/24 06:04:47;;;;;;;1.90;1.50;;;;;;;16.32;100.00;101022.34;7778447;22;20023;-92
2022/07/24 06:07:48;;;;;;;2.25;1.70;;;;;;;16.42;100.00;101019.66;7777549;22;20024;-92
2022/07/24 06:10:50;;;;;;;1.58;1.48;;;;;;;16.53;100.00;101020.28;7778232;22;20090;-92
2022/07/24 06:13:52;;;;;;;2.65;1.50;;;;;;;16.64;100.00;101013.19;7778767;22;20016;-91
2022/07/24 06:16:54;;;;;;;2.20;1.63;;;;;;;16.74;99.94;101006.09;7777984;22;20019;-92
2022/07/24 06:19:55;;;;;;;1.98;1.40;;;;;;;16.85;100.00;101007.72;7778447;22;20024;-92
2022/07/24 06:22:57;;;;;;;2.00;1.55;;;;;;;16.96;99.05;101003.06;7777506;22;20024;-93
2022/07/24 06:25:59;;;;;;;2.05;1.27;;;;;;;17.06;98.41;100999.53;7769905;22;20094;-92
2022/07/24 06:29:01;;;;;;;1.75;1.40;;;;;;;17.16;97.75;100995.03;7748483;22;20108;-92
2022/07/24 06:32:04;;;;;;;2.53;1.42;;;;;;;17.27;96.51;100994.81;7773452;22;20938;-91
2022/07/24 06:35:06;;;;;;;2.00;1.48;;;;;;;17.37;95.39;100998.13;7775176;22;20020;-92
2022/07/24 06:38:09;;;;;;;2.03;1.50;;;;;;;17.48;95.22;100988.38;7770551;22;20449;-92
2022/07/24 06:41:11;;;;;;;1.92;1.27;;;;;;;17.57;94.24;100998.75;7773354;22;20141;-92
2022/07/24 06:44:13;;;;;;;2.63;1.60;;;;;;;17.64;93.80;100986.69;7775671;22;20023;-92
2022/07/24 06:47:14;;;;;;;2.70;1.63;;;;;;;17.71;92.63;100983.41;7775292;22;20020;-92
2022/07/24 06:50:16;;;;;;;1.55;1.45;;;;;;;17.75;92.28;100984.75;7775413;22;20011;-92
2022/07/24 06:53:18;;;;;;;1.92;1.70;;;;;;;17.79;92.63;100989.53;7774786;22;20015;-92
2022/07/24 06:56:20;;;;;;;1.42;1.33;;;;;;;17.86;92.27;100982.72;7774512;22;20689;-93
2022/07/24 06:59:22;;;;;;;2.63;1.55;;;;;;;17.96;91.89;100982.59;7776130;22;20043;-92
2022/07/24 07:02:23;;;;;;;1.80;1.38;;;;;;;18.01;91.09;100980.31;7774885;22;20127;-92
2022/07/24 07:05:25;;;;;;;3.63;1.45;;;;;;;18.10;91.44;100981.16;7775285;22;20031;-92
2022/07/24 07:08:27;;;;;;;1.75;1.35;;;;;;;18.21;91.10;100987.88;7772390;22;20030;-92
2022/07/24 07:11:29;;;;;;;2.00;1.50;;;;;;;18.33;90.42;100980.56;7773335;22;20512;-92
2022/07/24 07:14:31;;;;;;;1.17;1.13;;;;;;;18.42;89.44;100982.22;7776096;22;20024;-92
2022/07/24 07:17:33;;;;;;;1.90;1.80;;;;;;;18.49;89.63;100988.47;7747844;22;20031;-92
2022/07/24 07:20:34;;;;;;;1.23;1.13;;;;;;;18.61;89.05;100991.59;7774212;22;20089;-92
2022/07/24 07:23:36;;;;;;;5.35;1.40;;;;;;;18.71;88.13;100987.81;7775994;22;20022;-92
2022/07/24 07:26:38;;;;;;;3.28;1.70;;;;;;;18.80;87.79;100990.47;7775850;22;20015;-92
2022/07/24 07:29:40;;;;;;;3.13;1.42;;;;;;;18.93;87.43;100990.78;7773167;22;20023;-92
2022/07/24 07:32:42;;;;;;;3.60;1.90;;;;;;;19.06;86.86;100982.44;7774821;22;20522;-92
2022/07/24 07:35:43;;;;;;;2.50;1.65;;;;;;;19.21;85.75;100986.03;7774961;22;20015;-92
2022/07/24 07:38:45;;;;;;;2.72;1.55;;;;;;;19.35;84.35;100981.88;7775286;22;20047;-92
2022/07/24 07:41:47;;;;;;;1.90;1.67;;;;;;;19.50;83.45;100982.03;7771571;22;20034;-92
2022/07/24 07:44:49;;;;;;;1.75;1.45;;;;;;;19.60;82.10;100990.53;7774168;22;20103;-92
2022/07/24 07:47:51;;;;;;;2.53;1.60;;;;;;;19.70;80.82;100987.72;7772492;22;20112;-92
2022/07/24 07:50:53;;;;;;;4.72;1.67;;;;;;;19.80;80.57;100996.25;7774860;22;20031;-92
2022/07/24 07:53:54;;;;;;;4.07;1.50;;;;;;;19.84;81.09;100994.09;7775297;22;20026;-92
2022/07/24 07:56:56;;;;;;;1.92;1.60;;;;;;;19.97;81.40;100989.09;7776135;22;20350;-92
2022/07/24 07:59:58;;;;;;;1.90;1.50;;;;;;;20.12;80.99;100987.41;7773266;22;20022;-91
2022/07/24 08:03:00;;;;;;;2.05;1.70;;;;;;;20.25;79.60;100980.75;7773009;22;20044;-92
2022/07/24 08:06:03;;;;;;;1.80;1.70;;;;;;;20.35;78.87;100962.97;7749023;22;20159;-92
2022/07/24 08:09:14;;;;;;;2.30;1.70;;;;;;;20.44;77.81;100975.03;7774196;22;20020;-92
2022/07/24 08:12:16;;;;;;;3.92;2.45;;;;;;;20.49;77.37;100977.97;7772067;22;20016;-92
2022/07/24 08:15:19;;;;;;;2.45;1.95;;;;;;;20.61;76.87;100986.31;7772140;22;20028;-92
2022/07/24 08:18:21;;;;;;;3.65;2.00;;;;;;;20.81;75.25;100986.63;7775235;22;20020;-92
2022/07/24 08:21:23;;;;;;;2.35;1.90;;;;;;;21.08;72.67;100975.53;7774237;22;20016;-92
2022/07/24 08:24:25;;;;;;;2.45;2.05;;;;;;;21.25;70.44;100978.03;7772474;22;20020;-92
2022/07/24 08:27:27;;;;;;;2.10;1.90;;;;;;;21.27;71.00;100976.03;7771517;22;20026;-92
2022/07/24 08:30:28;;;;;;;3.40;2.00;;;;;;;21.30;70.85;100968.56;7771565;22;20061;-92
2022/07/24 08:33:31;;;;;;;2.95;2.20;;;;;;;21.37;70.45;100968.69;7743865;22;20028;-91
2022/07/24 08:36:32;;;;;;;3.92;2.40;;;;;;;21.43;70.72;100972.44;7772776;22;20044;-93
2022/07/24 08:39:34;;;;;;;2.55;1.95;;;;;;;21.67;67.21;100969.50;7774010;22;20022;-92
2022/07/24 08:42:37;;;;;;;4.97;3.92;;;;;;;21.76;67.08;100974.69;7771152;22;20016;-92
2022/07/24 08:45:40;;;;;;;3.30;2.60;;;;;;;21.76;68.53;100964.13;7774086;22;20564;-92
2022/07/24 08:48:45;;;;;;;3.38;2.40;;;;;;;21.84;67.61;100967.50;7773228;22;20027;-92
2022/07/24 08:51:49;;;;;;;4.13;2.58;;;;;;;21.93;66.53;100960.28;7768850;22;20114;-93
2022/07/24 08:54:52;;;;;;;3.00;2.63;;;;;;;22.09;63.15;100968.00;7774236;22;20145;-92
2022/07/24 08:57:58;;;;;;;3.17;2.88;;;;;;;22.34;60.92;100967.66;7772569;22;20024;-93
2022/07/24 09:01:00;;;;;;;3.35;2.90;;;;;;;22.38;61.52;100971.53;7772741;22;20023;-92
2022/07/24 09:04:02;;;;;;;4.05;2.70;;;;;;;22.40;61.23;100966.91;7745222;22;20485;-93
2022/07/24 09:07:13;;;;;;;4.78;2.92;;;;;;;22.48;61.95;100963.31;7743996;22;20019;-93
2022/07/24 09:10:17;;;;;;;3.00;2.70;;;;;;;22.52;59.10;100960.13;7745888;22;20020;-94
2022/07/24 09:13:19;;;;;;;3.33;3.00;;;;;;;22.60;60.25;100956.53;7772205;22;20090;-93
2022/07/24 09:16:23;;;;;;;5.03;2.85;;;;;;;22.96;58.19;100958.25;7773740;22;20019;-93
2022/07/24 09:19:26;;;;;;;3.70;3.33;;;;;;;23.15;58.37;100964.69;7773172;22;20066;-93
2022/07/24 09:22:38;;;;;;;6.13;2.70;;;;;;;23.22;55.70;100957.63;7773763;22;20365;-93
2022/07/24 09:25:39;;;;;;;7.20;2.88;;;;;;;23.29;56.86;100955.03;7771203;22;20026;-92
2022/07/24 09:28:53;;;;;;;3.10;2.80;;;;;;;23.40;54.94;100957.97;7776431;22;20019;-93
2022/07/24 09:32:04;;;;;;;3.58;2.92;;;;;;;23.48;54.24;100953.50;7776803;22;20054;-93
2022/07/24 09:35:06;;;;;;;3.67;2.85;;;;;;;23.51;51.97;100942.56;7776378;22;20020;-93
2022/07/24 09:38:17;;;;;;;4.32;3.58;;;;;;;23.56;53.43;100945.44;7773784;22;20120;-94
2022/07/24 09:41:21;;;;;;;5.22;2.85;;;;;;;23.62;52.04;100944.63;7777045;22;20098;-93
2022/07/24 09:44:25;;;;;;;4.15;3.08;;;;;;;23.78;51.56;100935.59;7773343;22;20023;-92
2022/07/24 09:47:33;;;;;;;4.38;3.22;;;;;;;24.02;50.40;100944.78;7776947;22;20082;-93
2022/07/24 09:50:38;;;;;;;5.18;3.28;;;;;;;24.20;51.78;100941.59;7775046;22;20043;-93
2022/07/24 09:53:41;;;;;;;4.43;3.65;;;;;;;24.44;51.27;100926.97;7775352;22;20015;-94
2022/07/24 09:56:43;;;;;;;4.13;3.72;;;;;;;24.52;52.93;100925.97;7770424;22;20145;-93
2022/07/24 09:59:57;;;;;;;5.22;4.72;;;;;;;24.59;48.62;100940.84;7773657;22;20090;-93
2022/07/24 10:03:02;;;;;;;5.03;4.53;;;;;;;24.61;48.92;100938.00;7776455;22;20032;-92
2022/07/24 10:06:07;;;;;;;5.07;4.60;;;;;;;24.67;49.58;100931.88;7775555;22;20030;-93
2022/07/24 10:09:12;;;;;;;5.63;4.93;;;;;;;24.84;48.30;100933.09;7778960;22;20027;-94
2022/07/24 10:12:16;;;;;;;5.65;4.32;;;;;;;24.87;47.77;100934.53;7772774;22;20023;-93
2022/07/24 10:15:19;;;;;;;5.30;4.22;;;;;;;24.92;45.50;100932.88;7776079;22;20028;-93
2022/07/24 10:18:22;;;;;;;9.30;4.20;;;;;;;24.97;45.32;100928.78;7774858;22;20406;-91
2022/07/24 10:21:37;;;;;;;5.78;4.75;;;;;;;25.05;45.37;100918.81;7775491;22;20086;-91
2022/07/24 10:25:08;;;;;;;7.13;5.68;;;;;;;25.23;45.82;100917.38;7771605;22;20019;-91
2022/07/24 10:28:20;;;;;;;5.05;4.55;;;;;;;25.32;46.02;100914.28;7745181;22;20442;-89
2022/07/24 10:31:22;;;;;;;6.95;4.85;;;;;;;25.34;44.74;100906.09;7774788;22;20334;-90
2022/07/24 10:34:24;;;;;;;5.68;4.90;;;;;;;25.48;45.60;100907.69;7777562;22;20577;-96
2022/07/24 10:37:32;;;;;;;5.97;5.38;;;;;;;25.65;44.94;100902.72;7774903;22;20016;-96
2022/07/24 10:40:48;;;;;;;4.78;4.25;;;;;;;25.82;45.48;100891.63;7779979;22;20086;-96
2022/07/24 10:44:17;;;;;;;5.00;4.50;;;;;;;26.16;45.39;100890.41;7730235;22;20020;-96
2022/07/24 10:47:25;;;;;;;4.80;4.28;;;;;;;26.31;44.96;100900.69;7757021;22;20326;-96
2022/07/24 10:50:59;;;;;;;4.78;4.07;;;;;;;26.48;44.45;100901.78;7780879;22;20450;-96
2022/07/24 10:54:17;;;;;;;6.13;4.18;;;;;;;26.53;44.38;100893.19;7787703;22;20312;-96
2022/07/24 10:57:48;;;;;;;4.88;4.32;;;;;;;26.74;42.44;100895.47;7785136;22;20035;-96
2022/07/24 11:00:51;;;;;;;6.13;4.75;;;;;;;26.88;41.89;100890.81;7786112;22;20012;-96
2022/07/24 11:04:03;;;;;;;8.15;6.57;;;;;;;26.87;43.20;100896.38;7772890;22;20023;-96
2022/07/24 11:07:17;;;;;;;6.00;4.50;;;;;;;26.98;42.82;100888.47;7753120;22;20073;-96
2022/07/24 11:10:46;;;;;;;5.60;4.93;;;;;;;27.04;40.73;100887.59;7771284;22;20434;-88
2022/07/24 11:13:50;;;;;;;7.70;6.47;;;;;;;26.99;43.28;100876.00;7776122;22;20016;-86
2022/07/24 11:16:52;;;;;;;5.78;5.20;;;;;;;27.07;41.29;100881.00;7771088;22;20027;-87
2022/07/24 11:19:56;;;;;;;4.50;4.10;;;;;;;26.95;41.02;100874.81;7774568;22;20016;-88
2022/07/24 11:22:58;;;;;;;6.88;5.38;;;;;;;27.20;40.65;100875.56;7773999;22;20032;-88
2022/07/24 11:26:31;;;;;;;5.78;4.40;;;;;;;27.33;41.65;100876.44;7745877;22;20157;-89
2022/07/24 11:29:36;;;;;;;5.03;4.53;;;;;;;27.39;40.75;100865.72;7770333;22;20026;-88
2022/07/24 11:32:59;;;;;;;5.00;4.55;;;;;;;27.59;40.08;100860.16;7771349;22;20030;-89
2022/07/24 11:36:07;;;;;;;5.82;4.68;;;;;;;27.78;39.46;100862.78;7767822;22;20026;-88
2022/07/24 11:39:09;;;;;;;4.40;4.00;;;;;;;27.85;39.36;100866.97;7772375;22;20027;-86
2022/07/24 11:42:16;;;;;;;6.18;4.38;;;;;;;27.89;39.94;100859.34;7768762;22;20031;-87
2022/07/24 11:45:18;;;;;;;4.53;4.13;;;;;;;28.18;38.68;100851.53;7770768;22;20016;-88
2022/07/24 11:48:21;;;;;;;5.55;4.47;;;;;;;28.63;38.97;100854.47;7745952;22;20146;-88
2022/07/24 11:51:30;;;;;;;5.20;4.45;;;;;;;28.88;39.35;100840.88;7771834;22;20015;-88
2022/07/24 11:54:34;;;;;;;4.88;4.40;;;;;;;29.18;37.52;100845.22;7772236;22;20186;-88
2022/07/24 11:57:38;;;;;;;4.88;4.38;;;;;;;29.29;37.09;100832.88;7772070;22;20026;-88
2022/07/24 12:01:00;;;;;;;5.78;4.43;;;;;;;29.45;36.58;100840.13;7768469;22;20023;-88
2022/07/24 12:04:02;;;;;;;5.05;4.38;;;;;;;29.54;35.71;100837.88;7767117;22;20462;-88
2022/07/24 12:07:09;;;;;;;4.78;4.38;;;;;;;29.51;37.10;100822.34;7769793;22;20029;-88
2022/07/24 12:10:18;;;;;;;5.45;4.43;;;;;;;29.77;36.99;100826.31;7769304;22;20027;-88
2022/07/24 12:13:19;;;;;;;5.25;4.22;;;;;;;30.08;36.08;100822.25;7769834;22;20027;-87
2022/07/24 12:16:34;;;;;;;5.10;4.60;;;;;;;30.04;34.69;100818.47;7744492;22;20371;-87
2022/07/24 12:19:36;;;;;;;4.55;4.07;;;;;;;29.74;34.51;100821.44;7744318;22;20019;-87
2022/07/24 12:22:38;;;;;;;4.32;3.92;;;;;;;29.97;34.36;100820.50;7742876;22;20019;-88
2022/07/24 12:25:41;;;;;;;4.43;4.10;;;;;;;30.32;34.45;100803.41;7743007;22;20415;-88
2022/07/24 12:28:43;;;;;;;6.75;3.92;;;;;;;30.53;33.79;100807.16;7754242;22;20020;-89
2022/07/24 12:31:45;;;;;;;4.90;4.40;;;;;;;30.64;33.28;100806.25;7757266;22;20019;-88
2022/07/24 12:34:49;;;;;;;4.88;4.38;;;;;;;30.95;33.27;100794.06;7757566;22;20031;-88
2022/07/24 12:38:11;;;;;;;4.43;3.85;;;;;;;31.18;32.12;100797.53;7759231;22;20019;-88
2022/07/24 12:41:14;;;;;;;4.28;3.88;;;;;;;31.02;32.55;100799.25;7762205;22;20019;-89
2022/07/24 12:44:17;;;;;;;6.32;4.07;;;;;;;30.87;33.41;100783.84;7772865;22;20085;-89
2022/07/24 12:47:19;;;;;;;4.68;4.25;;;;;;;30.92;34.51;100777.75;7772020;22;20031;-88
2022/07/24 12:50:21;;;;;;;4.15;3.70;;;;;;;31.22;32.53;100771.91;7770914;22;20019;-88
2022/07/24 12:53:43;;;;;;;5.38;3.90;;;;;;;31.00;32.87;100766.59;7769957;22;20024;-88
2022/07/24 12:56:46;;;;;;;5.57;4.07;;;;;;;31.27;33.91;100763.91;7744711;22;20026;-88
2022/07/24 13:00:02;;;;;;;4.45;3.83;;;;;;;31.63;32.57;100762.41;7770740;22;20011;-88
2022/07/24 13:03:04;;;;;;;5.68;4.30;;;;;;;31.90;33.61;100751.63;7776725;22;20022;-89
2022/07/24 13:06:05;;;;;;;4.68;4.25;;;;;;;32.16;31.32;100754.47;7774521;22;20159;-89
2022/07/24 13:09:09;;;;;;;4.30;3.90;;;;;;;32.13;33.19;100749.66;7774497;22;20141;-88
2022/07/24 13:12:11;;;;;;;4.50;3.90;;;;;;;32.45;30.97;100752.22;7774897;22;20157;-88
2022/07/24 13:15:13;;;;;;;4.50;3.95;;;;;;;32.82;31.69;100757.47;7777765;22;20149;-88
2022/07/24 13:18:15;;;;;;;4.25;3.85;;;;;;;32.96;32.39;100756.94;7776954;22;20016;-88
2022/07/24 13:21:19;;;;;;;4.10;3.70;;;;;;;32.72;31.71;100749.38;7750109;22;20020;-88
2022/07/24 13:24:21;;;;;;;4.40;4.00;;;;;;;32.11;31.43;100751.78;7748552;22;20106;-87
2022/07/24 13:27:24;;;;;;;5.90;5.00;;;;;;;31.75;33.15;100735.44;7773918;22;20024;-88
2022/07/24 13:30:26;;;;;;;5.78;4.20;;;;;;;31.66;32.53;100735.13;7746678;22;20019;-88
2022/07/24 13:33:28;;;;;;;5.50;4.28;;;;;;;32.30;33.01;100734.19;7771228;22;20421;-88
2022/07/24 13:36:31;;;;;;;5.18;3.90;;;;;;;33.00;30.58;100737.38;7772566;22;20028;-89
2022/07/24 13:39:35;;;;;;;5.85;4.15;;;;;;;33.01;30.32;100741.66;7774688;22;20105;-88
2022/07/24 13:42:38;;;;;;;4.45;4.05;;;;;;;32.50;31.00;100736.19;7773132;22;20039;-84
2022/07/24 13:45:40;;;;;;;4.38;3.97;;;;;;;31.86;31.22;100723.75;7748181;22;20402;-86
2022/07/24 13:48:44;;;;;;;5.07;4.38;;;;;;;31.74;31.99;100731.16;7773566;22;20433;-86
2022/07/24 13:51:47;;;;;;;5.22;4.10;;;;;;;32.21;33.01;100724.22;7776835;22;20069;-85
2022/07/24 13:54:49;;;;;;;5.30;4.80;;;;;;;32.91;31.28;100712.16;7777649;22;20464;-86
2022/07/24 13:57:57;;;;;;;5.47;4.20;;;;;;;33.32;30.17;100706.06;7775157;22;20436;-86
2022/07/24 14:00:59;;;;;;;4.50;4.10;;;;;;;33.39;30.79;100701.19;7775086;22;20050;-85
2022/07/24 14:04:12;;;;;;;4.35;3.58;;;;;;;32.83;30.86;100697.38;7775821;22;20024;-85
2022/07/24 14:07:31;;;;;;;4.45;4.05;;;;;;;32.98;31.17;100695.81;7775959;22;20019;-85
2022/07/24 14:10:33;;;;;;;5.65;4.15;;;;;;;32.60;31.08;100696.00;7779349;22;20015;-85